Liberty Hill, TX

2:23 PM CST on November 24, 2014 (GMT -0600)
Branch Creek Trail Estates | Change Station
CLOSE
Current Station
Personal Weather Station
Location: Liberty Hill, TX
Elevation: 1047 ft
Nearby Weather Stations

Elev 1047 ft 30.75 °N, 97.89 °W | Updated 4 minutes ago

Partly Cloudy
Partly Cloudy
61.3 °F
Feels Like 61.3 °F
N
1.7
Wind Variable Wind from ENE

Today
High -- | Low -- °F
--% Chance of Precip.
Yesterday
High -- | Low -- °F
Precip. -- in
7:05 AM 5:30 PM
Waxing Crescent, 7% visible
Pressure 30.06 in
Visibility 10.0 miles
Clouds Clear
Dew Point 29 °F
Humidity 29%
Rainfall 0.00 in
Snow Depth Not available.
UV 3 out of 12
Pollen 5.30 out of 12
Air Quality Not available.
Flu Activity Not available.
METAR KRYW 242015Z AUTO 01005KT 10SM CLR 16/M07 A3006 RMK AO2 T01601071

More Conditions Fewer Conditions

Pressure 30.06 in
Visibility 10.0 miles
Clouds Clear
Dew Point 29 °F
Humidity 29%
Rainfall 0.00 in
Snow Depth Not available.
UV 3 out of 12
Pollen 5.30 out of 12
Air Quality Not available.
Flu Activity Not available.
METAR KRYW 242015Z AUTO 01005KT 10SM CLR 16/M07 A3006 RMK AO2 T01601071

More Conditions Fewer Conditions

10-Day Weather Forecast

Almanac

Astronomy

Nov. 24, 2014 Rise Set
Actual Time
Civil Twilight
Nautical Twilight
Astronomical Twilight
Moon
Length of Visible Light
Length of Day
Tomorrow will be .
, % of the Moon is Illuminated

Today's Extremes

State Highs State Lows

Community

WunderPhotos

Upload Photos

1,773,403 photos uploaded!

WunderBlogs® & News

Nearby

Air Quality

  Air Quality AQ Index Pollutant
Not available.

Snow Depth

Station Depth Elevation

Earthquake Activity

City Distance Mag. Time & Date
Minimum magnitude displayed is 2.5.

Coastal Water Temperatures

Place Temperature

Nearby Weather Stations